createdAt,value
2018-02-17T00:00:03.140Z,999.01
2018-02-17T00:01:03.132Z,999.02
2018-02-17T00:02:03.120Z,999.02
2018-02-17T00:03:03.114Z,998.99
2018-02-17T00:04:03.099Z,999
2018-02-17T00:05:03.095Z,998.99
2018-02-17T00:06:03.079Z,998.97
2018-02-17T00:07:03.072Z,998.97
2018-02-17T00:08:03.058Z,998.98
2018-02-17T00:09:03.048Z,998.97
2018-02-17T00:10:03.039Z,998.96
2018-02-17T00:11:03.029Z,998.96
2018-02-17T00:12:03.027Z,998.92
2018-02-17T00:13:03.011Z,998.93
2018-02-17T00:14:02.999Z,998.85
2018-02-17T00:15:02.989Z,998.86
2018-02-17T00:16:02.977Z,998.84
2018-02-17T00:17:02.972Z,998.87
2018-02-17T00:18:02.957Z,998.83
2018-02-17T00:19:02.948Z,998.83
2018-02-17T00:20:02.940Z,998.83
2018-02-17T00:21:02.931Z,998.81
2018-02-17T00:22:02.930Z,998.84
2018-02-17T00:23:02.906Z,998.85
2018-02-17T00:24:02.904Z,998.82
2018-02-17T00:25:02.886Z,998.83
2018-02-17T00:26:02.877Z,998.76
2018-02-17T00:27:02.878Z,998.71
2018-02-17T00:28:02.860Z,998.73
2018-02-17T00:29:02.845Z,998.7
2018-02-17T00:30:02.834Z,998.65
2018-02-17T00:31:02.824Z,998.67
2018-02-17T00:32:02.839Z,998.64
2018-02-17T00:33:02.804Z,998.65
2018-02-17T00:34:02.793Z,998.66
2018-02-17T00:35:02.786Z,998.7
2018-02-17T00:36:02.775Z,998.72
2018-02-17T00:37:02.770Z,998.71
2018-02-17T00:38:02.758Z,998.75
2018-02-17T00:39:02.746Z,998.75
2018-02-17T00:40:02.733Z,998.77
2018-02-17T00:41:02.722Z,998.78
2018-02-17T00:42:02.723Z,998.77
2018-02-17T00:43:02.715Z,998.75
2018-02-17T00:44:02.691Z,998.74
2018-02-17T00:45:02.681Z,998.76
2018-02-17T00:46:02.672Z,998.73
2018-02-17T00:47:02.678Z,998.71
2018-02-17T00:48:02.664Z,998.66
2018-02-17T00:49:02.639Z,998.7
2018-02-17T00:50:02.630Z,998.67
2018-02-17T00:51:02.645Z,998.64
2018-02-17T00:52:02.620Z,998.57
2018-02-17T00:53:02.609Z,998.53
2018-02-17T00:54:02.591Z,998.49
2018-02-17T00:55:02.578Z,998.48
2018-02-17T00:56:02.567Z,998.42
2018-02-17T00:57:02.564Z,998.41
2018-02-17T00:58:02.561Z,998.37
2018-02-17T00:59:02.536Z,998.35
2018-02-17T01:00:02.525Z,998.26
2018-02-17T01:01:02.516Z,998.22
2018-02-17T01:02:02.517Z,998.16
2018-02-17T01:03:02.495Z,998.18
2018-02-17T01:04:02.497Z,998.16
2018-02-17T01:05:02.483Z,998.18
2018-02-17T01:06:02.464Z,998.15
2018-02-17T01:07:02.471Z,998.16
2018-02-17T01:08:02.445Z,998.15
2018-02-17T01:09:02.440Z,998.09
2018-02-17T01:10:02.427Z,998.08
2018-02-17T01:11:02.415Z,998.09
2018-02-17T01:12:02.411Z,998.1
2018-02-17T01:13:02.393Z,998.05
2018-02-17T01:14:02.383Z,998.03
2018-02-17T01:15:02.374Z,998.03
2018-02-17T01:16:02.364Z,998
2018-02-17T01:17:02.361Z,998.01
2018-02-17T01:18:02.343Z,998.02
2018-02-17T01:19:02.337Z,997.98
2018-02-17T01:20:02.322Z,997.97
2018-02-17T01:21:02.311Z,998.01
2018-02-17T01:22:02.309Z,998
2018-02-17T01:23:02.292Z,997.95
2018-02-17T01:24:02.282Z,997.92
2018-02-17T01:25:02.282Z,997.87
2018-02-17T01:26:02.262Z,997.87
2018-02-17T01:27:02.254Z,997.82
2018-02-17T01:28:02.249Z,997.84
2018-02-17T01:29:02.228Z,997.77
2018-02-17T01:30:02.220Z,997.74
2018-02-17T01:31:02.208Z,997.75
2018-02-17T01:32:02.205Z,997.76
2018-02-17T01:33:02.191Z,997.76
2018-02-17T01:34:02.181Z,997.75
2018-02-17T01:35:02.170Z,997.74
2018-02-17T01:36:04.208Z,997.66
2018-02-17T01:37:02.155Z,997.63
2018-02-17T01:38:02.139Z,997.57
2018-02-17T01:39:02.125Z,997.56
2018-02-17T01:40:02.114Z,997.52
2018-02-17T01:41:02.106Z,997.56
2018-02-17T01:42:02.105Z,997.53
2018-02-17T01:43:02.082Z,997.51
2018-02-17T01:44:02.071Z,997.49
2018-02-17T01:45:02.062Z,997.48
2018-02-17T01:46:02.050Z,997.48
2018-02-17T01:47:02.044Z,997.43
2018-02-17T01:48:02.035Z,997.43
2018-02-17T01:49:02.020Z,997.41
2018-02-17T01:50:02.009Z,997.43
2018-02-17T01:51:01.999Z,997.38
2018-02-17T01:52:01.991Z,997.36
2018-02-17T01:53:01.977Z,997.36
2018-02-17T01:54:01.970Z,997.36
2018-02-17T01:55:01.959Z,997.31
2018-02-17T01:56:01.950Z,997.23
2018-02-17T01:57:01.937Z,997.19
2018-02-17T01:58:01.926Z,997.14
2018-02-17T01:59:01.920Z,997.11
2018-02-17T02:00:01.906Z,997.07
2018-02-17T02:01:01.896Z,996.94
2018-02-17T02:02:01.885Z,996.94
2018-02-17T02:03:01.875Z,996.96
2018-02-17T02:04:01.864Z,996.94
2018-02-17T02:05:01.854Z,996.93
2018-02-17T02:06:01.844Z,996.93
2018-02-17T02:07:01.839Z,996.9
2018-02-17T02:08:01.822Z,996.96
2018-02-17T02:09:01.814Z,997.03
2018-02-17T02:10:01.805Z,997.14
2018-02-17T02:11:01.793Z,997.2
2018-02-17T02:12:01.785Z,997.21
2018-02-17T02:13:01.774Z,997.2
2018-02-17T02:14:01.764Z,997.19
2018-02-17T02:15:01.751Z,997.09
2018-02-17T02:16:01.741Z,997.01
2018-02-17T02:17:01.735Z,997.01
2018-02-17T02:18:01.735Z,996.91
2018-02-17T02:19:01.711Z,996.84
2018-02-17T02:20:01.705Z,996.81
2018-02-17T02:21:01.690Z,996.76
2018-02-17T02:22:01.682Z,996.75
2018-02-17T02:23:01.670Z,996.77
2018-02-17T02:24:01.662Z,996.74
2018-02-17T02:25:01.650Z,996.77
2018-02-17T02:26:01.638Z,996.81
2018-02-17T02:27:01.629Z,996.82
2018-02-17T02:28:01.618Z,996.85
2018-02-17T02:29:01.608Z,996.86
2018-02-17T02:30:01.600Z,996.78
2018-02-17T02:31:01.623Z,996.78
2018-02-17T02:32:01.577Z,996.73
2018-02-17T02:33:01.567Z,996.69
2018-02-17T02:34:01.557Z,996.72
2018-02-17T02:35:01.547Z,996.76
2018-02-17T02:36:01.536Z,996.83
2018-02-17T02:37:06.331Z,996.91
2018-02-17T02:38:01.520Z,996.93
2018-02-17T02:39:01.505Z,997.04
2018-02-17T02:40:01.495Z,997.1
2018-02-17T02:41:01.485Z,997.11
2018-02-17T02:42:01.472Z,997.18
2018-02-17T02:43:01.463Z,997.16
2018-02-17T02:44:01.455Z,997.17
2018-02-17T02:45:01.441Z,997.15
2018-02-17T02:46:01.432Z,997.19
2018-02-17T02:47:01.432Z,997.11
2018-02-17T02:48:01.420Z,997.07
2018-02-17T02:49:01.400Z,997.08
2018-02-17T02:50:01.389Z,997.08
2018-02-17T02:51:01.382Z,997.1
2018-02-17T02:52:01.367Z,997.17
2018-02-17T02:53:01.361Z,997.19
2018-02-17T02:54:01.347Z,997.25
2018-02-17T02:55:01.347Z,997.26
2018-02-17T02:56:01.324Z,997.27
2018-02-17T02:57:01.314Z,997.27
2018-02-17T02:58:01.303Z,997.25
2018-02-17T02:59:01.292Z,997.25
2018-02-17T03:00:01.283Z,997.23
2018-02-17T03:01:01.272Z,997.13
2018-02-17T03:02:01.265Z,997.08
2018-02-17T03:03:01.261Z,997.04
2018-02-17T03:04:01.242Z,997.03
2018-02-17T03:05:01.245Z,997.04
2018-02-17T03:06:01.219Z,997
2018-02-17T03:07:01.209Z,997.01
2018-02-17T03:08:01.201Z,996.98
2018-02-17T03:09:01.186Z,996.88
2018-02-17T03:10:01.186Z,996.86
2018-02-17T03:11:01.165Z,996.85
2018-02-17T03:12:01.154Z,996.86
2018-02-17T03:13:01.146Z,996.85
2018-02-17T03:14:01.132Z,996.81
2018-02-17T03:15:01.160Z,996.83
2018-02-17T03:16:01.112Z,996.79
2018-02-17T03:17:01.099Z,996.76
2018-02-17T03:18:01.091Z,996.76
2018-02-17T03:19:01.084Z,996.75
2018-02-17T03:20:01.069Z,996.71
2018-02-17T03:21:01.056Z,996.73
2018-02-17T03:22:01.047Z,996.7
2018-02-17T03:23:01.040Z,996.66
2018-02-17T03:24:01.026Z,996.71
2018-02-17T03:25:01.014Z,996.61
2018-02-17T03:26:01.014Z,996.65
2018-02-17T03:27:00.993Z,996.59
2018-02-17T03:28:00.982Z,996.55
2018-02-17T03:29:00.971Z,996.49
2018-02-17T03:30:00.973Z,996.45
2018-02-17T03:31:00.951Z,996.42
2018-02-17T03:32:00.939Z,996.4
2018-02-17T03:33:00.929Z,996.45
2018-02-17T03:34:00.924Z,996.43
2018-02-17T03:35:00.910Z,996.39
2018-02-17T03:36:00.895Z,996.37
2018-02-17T03:37:00.887Z,996.36
2018-02-17T03:38:00.877Z,996.34
2018-02-17T03:39:00.865Z,996.38
2018-02-17T03:40:00.855Z,996.42
2018-02-17T03:41:00.844Z,996.41
2018-02-17T03:42:00.835Z,996.46
2018-02-17T03:43:00.824Z,996.39
2018-02-17T03:44:00.812Z,996.39
2018-02-17T03:45:00.803Z,996.36
2018-02-17T03:46:00.792Z,996.34
2018-02-17T03:47:00.781Z,996.25
2018-02-17T03:48:00.774Z,996.15
2018-02-17T03:49:00.759Z,996.12
2018-02-17T03:50:00.766Z,996.06
2018-02-17T03:51:00.737Z,996.02
2018-02-17T03:52:00.726Z,996.02
2018-02-17T03:53:00.723Z,995.96
2018-02-17T03:54:00.705Z,995.98
2018-02-17T03:55:00.694Z,995.93
2018-02-17T03:56:00.683Z,995.89
2018-02-17T03:57:00.673Z,995.83
2018-02-17T03:58:00.662Z,995.75
2018-02-17T03:59:00.651Z,995.72
2018-02-17T04:00:00.638Z,995.69
2018-02-17T04:01:00.636Z,995.64
2018-02-17T04:02:00.617Z,995.67
2018-02-17T04:03:00.640Z,995.65
2018-02-17T04:04:00.595Z,995.71
2018-02-17T04:05:00.584Z,995.68
2018-02-17T04:06:00.578Z,995.63
2018-02-17T04:07:00.565Z,995.57
2018-02-17T04:08:01.504Z,995.59
2018-02-17T04:09:00.543Z,995.56
2018-02-17T04:10:00.531Z,995.6
2018-02-17T04:11:00.520Z,995.59
2018-02-17T04:12:00.508Z,995.63
2018-02-17T04:13:00.498Z,995.59
2018-02-17T04:14:00.492Z,995.58
2018-02-17T04:15:00.478Z,995.56
2018-02-17T04:16:00.466Z,995.49
2018-02-17T04:17:00.456Z,995.46
2018-02-17T04:18:00.446Z,995.46
2018-02-17T04:19:00.435Z,995.4
2018-02-17T04:20:00.427Z,995.34
2018-02-17T04:21:00.417Z,995.27
2018-02-17T04:22:00.402Z,995.27
2018-02-17T04:23:00.393Z,995.2
2018-02-17T04:24:00.384Z,995.19
2018-02-17T04:25:00.371Z,995.17
2018-02-17T04:26:00.361Z,995.15
2018-02-17T04:27:00.350Z,995.1
2018-02-17T04:28:00.341Z,995.11
2018-02-17T04:29:00.329Z,995.03
2018-02-17T04:30:00.317Z,994.96
2018-02-17T04:31:00.307Z,994.97
2018-02-17T04:32:00.296Z,995
2018-02-17T04:33:00.286Z,995.07
2018-02-17T04:34:00.274Z,995.14
2018-02-17T04:35:00.266Z,995.17
2018-02-17T04:36:00.256Z,995.16
2018-02-17T04:37:00.244Z,995.14
2018-02-17T04:38:00.232Z,995.17
2018-02-17T04:39:00.232Z,995.08
2018-02-17T04:40:00.217Z,995.11
2018-02-17T04:41:00.201Z,995.14
2018-02-17T04:42:00.195Z,995.18
2018-02-17T04:43:00.180Z,995.19
2018-02-17T04:44:00.170Z,995.16
2018-02-17T04:45:00.159Z,995.16
2018-02-17T04:46:00.150Z,995.08
2018-02-17T04:47:00.147Z,995.05
2018-02-17T04:48:00.135Z,995.03
2018-02-17T04:49:00.117Z,995.03
2018-02-17T04:50:00.108Z,995.05
2018-02-17T04:51:00.097Z,995.1
2018-02-17T04:52:00.093Z,995.15
2018-02-17T04:53:00.080Z,995.16
2018-02-17T04:54:00.066Z,995.13
2018-02-17T04:55:00.061Z,995.12
2018-02-17T04:56:00.044Z,995.11
2018-02-17T04:57:00.036Z,995.07
2018-02-17T04:58:00.023Z,994.99
2018-02-17T04:59:00.011Z,995
2018-02-17T04:59:59.999Z,995.03
2018-02-17T05:00:59.991Z,994.96
2018-02-17T05:01:59.980Z,994.95
2018-02-17T05:02:59.968Z,994.93
2018-02-17T05:03:59.962Z,994.98
2018-02-17T05:04:59.950Z,994.99
2018-02-17T05:05:59.937Z,995.04
2018-02-17T05:06:59.926Z,995
2018-02-17T05:07:59.922Z,994.99
2018-02-17T05:09:04.209Z,994.94
2018-02-17T05:09:59.904Z,994.91
2018-02-17T05:10:59.885Z,994.89
2018-02-17T05:11:59.873Z,994.92
2018-02-17T05:12:59.863Z,994.98
2018-02-17T05:13:59.852Z,994.96
2018-02-17T05:14:59.848Z,995.01
2018-02-17T05:15:59.830Z,995.02
2018-02-17T05:16:59.834Z,995.09
2018-02-17T05:17:59.809Z,995.06
2018-02-17T05:18:59.802Z,995.01
2018-02-17T05:19:59.799Z,995
2018-02-17T05:20:59.781Z,994.95
2018-02-17T05:21:59.768Z,994.93
2018-02-17T05:22:59.758Z,995.01
2018-02-17T05:23:59.748Z,995
2018-02-17T05:24:59.744Z,994.94
2018-02-17T05:25:59.729Z,994.88
2018-02-17T05:26:59.723Z,994.78
2018-02-17T05:27:59.707Z,994.77
2018-02-17T05:28:59.711Z,994.7
2018-02-17T05:29:59.696Z,994.62
2018-02-17T05:30:59.690Z,994.6
2018-02-17T05:31:59.668Z,994.58
2018-02-17T05:32:59.663Z,994.59
2018-02-17T05:33:59.652Z,994.59
2018-02-17T05:34:59.648Z,994.59
2018-02-17T05:35:59.630Z,994.59
2018-02-17T05:36:59.631Z,994.55
2018-02-17T05:37:59.627Z,994.54
2018-02-17T05:38:59.602Z,994.46
2018-02-17T05:39:59.594Z,994.48
2018-02-17T05:40:59.594Z,994.42
2018-02-17T05:41:59.584Z,994.37
2018-02-17T05:42:59.555Z,994.46
2018-02-17T05:43:59.543Z,994.45
2018-02-17T05:44:59.552Z,994.46
2018-02-17T05:45:59.521Z,994.53
2018-02-17T05:46:59.527Z,994.51
2018-02-17T05:47:59.504Z,994.46
2018-02-17T05:48:59.488Z,994.41
2018-02-17T05:49:59.479Z,994.39
2018-02-17T05:50:59.467Z,994.42
2018-02-17T05:51:59.464Z,994.4
2018-02-17T05:52:59.447Z,994.42
2018-02-17T05:53:59.442Z,994.5
2018-02-17T05:54:59.427Z,994.52
2018-02-17T05:55:59.420Z,994.52
2018-02-17T05:56:59.410Z,994.54
2018-02-17T05:57:59.409Z,994.59
2018-02-17T05:58:59.385Z,994.52
2018-02-17T05:59:59.376Z,994.5
2018-02-17T06:00:59.367Z,994.46
2018-02-17T06:01:59.358Z,994.39
2018-02-17T06:02:59.348Z,994.34
2018-02-17T06:03:59.336Z,994.28
2018-02-17T06:04:59.328Z,994.27
2018-02-17T06:05:59.315Z,994.28
2018-02-17T06:06:59.306Z,994.23
2018-02-17T06:07:59.298Z,994.24
2018-02-17T06:08:59.285Z,994.23
2018-02-17T06:10:00.226Z,994.1
2018-02-17T06:10:59.270Z,994.07
2018-02-17T06:11:59.255Z,993.98
2018-02-17T06:12:59.245Z,993.96
2018-02-17T06:13:59.237Z,993.93
2018-02-17T06:14:59.225Z,993.91
2018-02-17T06:15:59.214Z,993.87
2018-02-17T06:16:59.204Z,993.9
2018-02-17T06:17:59.194Z,993.89
2018-02-17T06:18:59.184Z,993.79
2018-02-17T06:19:59.174Z,993.69
2018-02-17T06:20:59.164Z,993.56
2018-02-17T06:21:59.154Z,993.53
2018-02-17T06:22:59.144Z,993.46
2018-02-17T06:23:59.132Z,993.39
2018-02-17T06:24:59.129Z,993.35
2018-02-17T06:25:59.119Z,993.38
2018-02-17T06:26:59.103Z,993.35
2018-02-17T06:27:59.095Z,993.34
2018-02-17T06:28:59.083Z,993.34
2018-02-17T06:29:59.082Z,993.29
2018-02-17T06:30:59.063Z,993.35
2018-02-17T06:31:59.124Z,993.34
2018-02-17T06:32:59.114Z,993.36
2018-02-17T06:33:59.041Z,993.4
2018-02-17T06:34:59.026Z,993.47
2018-02-17T06:35:59.013Z,993.52
2018-02-17T06:36:59.002Z,993.54
2018-02-17T06:37:58.992Z,993.57
2018-02-17T06:38:58.985Z,993.6
2018-02-17T06:39:58.973Z,993.61
2018-02-17T06:40:58.964Z,993.6
2018-02-17T06:41:58.952Z,993.65
2018-02-17T06:42:58.945Z,993.67
2018-02-17T06:43:58.936Z,993.62
2018-02-17T06:44:58.924Z,993.53
2018-02-17T06:45:58.913Z,993.46
2018-02-17T06:46:58.903Z,993.35
2018-02-17T06:47:58.894Z,993.33
2018-02-17T06:48:58.886Z,993.34
2018-02-17T06:49:58.901Z,993.36
2018-02-17T06:50:58.873Z,993.39
2018-02-17T06:51:58.854Z,993.41
2018-02-17T06:52:58.844Z,993.46
2018-02-17T06:53:58.834Z,993.39
2018-02-17T06:54:58.825Z,993.41
2018-02-17T06:55:58.815Z,993.32
2018-02-17T06:56:58.847Z,993.29
2018-02-17T06:57:58.795Z,993.28
2018-02-17T06:58:58.787Z,993.33
2018-02-17T06:59:58.784Z,993.33
2018-02-17T07:00:58.766Z,993.38
2018-02-17T07:01:58.756Z,993.39
2018-02-17T07:02:58.746Z,993.46
2018-02-17T07:03:58.737Z,993.49
2018-02-17T07:04:58.732Z,993.61
2018-02-17T07:05:58.716Z,993.78
2018-02-17T07:06:58.707Z,993.89
2018-02-17T07:07:58.700Z,994.01
2018-02-17T07:08:58.687Z,994.09
2018-02-17T07:09:58.678Z,994.16
2018-02-17T07:10:59.918Z,994.21
2018-02-17T07:11:58.658Z,994.2
2018-02-17T07:12:58.655Z,994.2
2018-02-17T07:13:58.638Z,994.14
2018-02-17T07:14:58.628Z,994.13
2018-02-17T07:15:58.620Z,994.03
2018-02-17T07:16:58.610Z,993.92
2018-02-17T07:17:58.600Z,993.83
2018-02-17T07:18:58.592Z,993.79
2018-02-17T07:19:58.582Z,993.76
2018-02-17T07:20:58.572Z,993.77
2018-02-17T07:21:58.569Z,993.82
2018-02-17T07:22:58.552Z,993.8
2018-02-17T07:23:58.542Z,993.84
2018-02-17T07:24:58.531Z,993.88
2018-02-17T07:25:58.522Z,993.89
2018-02-17T07:26:58.513Z,993.9
2018-02-17T07:27:58.503Z,993.94
2018-02-17T07:28:58.494Z,993.91
2018-02-17T07:29:58.484Z,993.92
2018-02-17T07:30:58.474Z,993.88
2018-02-17T07:31:58.467Z,993.83
2018-02-17T07:32:58.455Z,993.71
2018-02-17T07:33:58.445Z,993.67
2018-02-17T07:34:58.442Z,993.57
2018-02-17T07:35:58.427Z,993.54
2018-02-17T07:36:58.416Z,993.53
2018-02-17T07:37:58.410Z,993.51
2018-02-17T07:38:58.398Z,993.48
2018-02-17T07:39:58.386Z,993.49
2018-02-17T07:40:58.383Z,993.48
2018-02-17T07:41:58.369Z,993.52
2018-02-17T07:42:58.360Z,993.54
2018-02-17T07:43:58.349Z,993.54
2018-02-17T07:44:58.340Z,993.5
2018-02-17T07:45:58.329Z,993.48
2018-02-17T07:46:58.325Z,993.41
2018-02-17T07:47:58.320Z,993.43
2018-02-17T07:48:58.306Z,993.46
2018-02-17T07:49:58.291Z,993.51
2018-02-17T07:50:58.281Z,993.48
2018-02-17T07:51:58.272Z,993.48
2018-02-17T07:52:58.264Z,993.48
2018-02-17T07:53:58.257Z,993.55
2018-02-17T07:54:58.244Z,993.62
2018-02-17T07:55:58.239Z,993.75
2018-02-17T07:56:58.537Z,993.82
2018-02-17T07:57:58.223Z,993.83
2018-02-17T07:58:58.207Z,993.81
2018-02-17T07:59:58.196Z,993.79
2018-02-17T08:00:58.191Z,993.72
2018-02-17T08:01:58.181Z,993.75
2018-02-17T08:02:58.170Z,993.7
2018-02-17T08:03:58.161Z,993.68
2018-02-17T08:04:58.154Z,993.61
2018-02-17T08:05:58.408Z,993.55
2018-02-17T08:06:58.133Z,993.52
2018-02-17T08:07:58.123Z,993.47
2018-02-17T08:08:58.114Z,993.44
2018-02-17T08:09:58.114Z,993.39
2018-02-17T08:10:58.096Z,993.37
2018-02-17T08:11:59.988Z,993.4
2018-02-17T08:12:58.076Z,993.38
2018-02-17T08:13:58.073Z,993.41
2018-02-17T08:14:58.058Z,993.36
2018-02-17T08:15:58.049Z,993.39
2018-02-17T08:16:58.040Z,993.39
2018-02-17T08:17:58.030Z,993.38
2018-02-17T08:18:58.020Z,993.34
2018-02-17T08:19:58.010Z,993.32
2018-02-17T08:20:58.001Z,993.34
2018-02-17T08:21:57.992Z,993.33
2018-02-17T08:22:57.982Z,993.34
2018-02-17T08:23:57.971Z,993.3
2018-02-17T08:24:57.963Z,993.2
2018-02-17T08:25:57.953Z,993.17
2018-02-17T08:26:57.944Z,993.1
2018-02-17T08:27:57.934Z,993.05
2018-02-17T08:28:57.925Z,993.04
2018-02-17T08:29:57.916Z,992.98
2018-02-17T08:30:57.907Z,992.91
2018-02-17T08:31:57.897Z,992.89
2018-02-17T08:32:57.887Z,992.88
2018-02-17T08:33:57.877Z,992.82
2018-02-17T08:34:57.870Z,992.85
2018-02-17T08:35:57.864Z,992.82
2018-02-17T08:36:57.849Z,992.83
2018-02-17T08:37:57.840Z,992.8
2018-02-17T08:38:57.830Z,992.79
2018-02-17T08:39:57.821Z,992.78
2018-02-17T08:40:57.812Z,992.79
2018-02-17T08:41:57.809Z,992.77
2018-02-17T08:42:57.798Z,992.73
2018-02-17T08:43:57.790Z,992.75
2018-02-17T08:44:57.774Z,992.76
2018-02-17T08:45:57.767Z,992.74
2018-02-17T08:46:57.755Z,992.82
2018-02-17T08:47:57.747Z,992.8
2018-02-17T08:48:57.739Z,992.88
2018-02-17T08:49:57.724Z,992.82
2018-02-17T08:50:57.720Z,992.83
2018-02-17T08:51:57.709Z,992.82
2018-02-17T08:52:57.700Z,992.83
2018-02-17T08:53:57.687Z,992.84
2018-02-17T08:54:57.678Z,992.82
2018-02-17T08:55:57.668Z,992.78
2018-02-17T08:56:57.659Z,992.8
2018-02-17T08:57:57.702Z,992.7
2018-02-17T08:58:57.640Z,992.64
2018-02-17T08:59:57.631Z,992.64
2018-02-17T09:00:57.626Z,992.57
2018-02-17T09:01:57.618Z,992.59
2018-02-17T09:02:57.605Z,992.55
2018-02-17T09:03:57.593Z,992.55
2018-02-17T09:04:57.585Z,992.58
2018-02-17T09:05:57.578Z,992.57
2018-02-17T09:06:57.568Z,992.57
2018-02-17T09:07:57.558Z,992.52
2018-02-17T09:08:57.549Z,992.51
2018-02-17T09:09:57.539Z,992.51
2018-02-17T09:10:57.530Z,992.48
2018-02-17T09:11:57.520Z,992.52
2018-02-17T09:12:58.620Z,992.47
2018-02-17T09:13:57.502Z,992.54
2018-02-17T09:14:57.492Z,992.48
2018-02-17T09:15:57.492Z,992.41
2018-02-17T09:16:57.475Z,992.4
2018-02-17T09:17:57.467Z,992.34
2018-02-17T09:18:57.500Z,992.25
2018-02-17T09:19:57.447Z,992.21
2018-02-17T09:20:57.438Z,992.14
2018-02-17T09:21:57.438Z,992.17
2018-02-17T09:22:57.421Z,992.15
2018-02-17T09:23:57.413Z,992.08
2018-02-17T09:24:57.404Z,992.12
2018-02-17T09:25:57.395Z,992.11
2018-02-17T09:26:57.386Z,992.08
2018-02-17T09:27:57.380Z,992.09
2018-02-17T09:28:57.373Z,992.07
2018-02-17T09:29:57.378Z,992.03
2018-02-17T09:30:57.352Z,991.99
2018-02-17T09:31:57.346Z,991.95
2018-02-17T09:32:57.334Z,991.93
2018-02-17T09:33:57.324Z,991.97
2018-02-17T09:34:57.319Z,991.97
2018-02-17T09:35:57.310Z,991.96
2018-02-17T09:36:57.298Z,992.03
2018-02-17T09:37:57.293Z,991.99
2018-02-17T09:38:57.285Z,992.03
2018-02-17T09:39:57.274Z,992.02
2018-02-17T09:40:57.266Z,991.94
2018-02-17T09:41:57.261Z,991.94
2018-02-17T09:42:57.248Z,991.91
2018-02-17T09:43:57.241Z,991.94
2018-02-17T09:44:57.231Z,991.89
2018-02-17T09:45:57.223Z,991.88
2018-02-17T09:46:57.212Z,991.82
2018-02-17T09:47:57.217Z,991.79
2018-02-17T09:48:57.196Z,991.76
2018-02-17T09:49:57.187Z,991.76
2018-02-17T09:50:57.183Z,991.72
2018-02-17T09:51:57.169Z,991.72
2018-02-17T09:52:57.160Z,991.75
2018-02-17T09:53:57.153Z,991.74
2018-02-17T09:54:57.143Z,991.83
2018-02-17T09:55:57.132Z,991.76
2018-02-17T09:56:57.125Z,991.85
2018-02-17T09:57:57.116Z,991.86
2018-02-17T09:58:57.108Z,991.84
2018-02-17T09:59:57.103Z,991.85
2018-02-17T10:00:57.094Z,991.82
2018-02-17T10:01:57.084Z,991.83
2018-02-17T10:02:57.079Z,991.84
2018-02-17T10:03:57.071Z,991.83
2018-02-17T10:04:57.065Z,991.83
2018-02-17T10:05:57.048Z,991.82
2018-02-17T10:06:57.040Z,991.79
2018-02-17T10:07:57.032Z,991.82
2018-02-17T10:08:57.027Z,991.8
2018-02-17T10:09:57.012Z,991.76
2018-02-17T10:10:57.008Z,991.8
2018-02-17T10:11:57.005Z,991.81
2018-02-17T10:12:56.987Z,991.77
2018-02-17T10:13:56.981Z,991.79
2018-02-17T10:14:56.980Z,991.79
2018-02-17T10:15:56.961Z,991.79
2018-02-17T10:16:56.952Z,991.8
2018-02-17T10:17:56.952Z,991.83
2018-02-17T10:18:56.933Z,991.83
2018-02-17T10:19:56.929Z,991.86
2018-02-17T10:20:56.925Z,991.89
2018-02-17T10:21:56.908Z,991.92
2018-02-17T10:22:56.899Z,991.93
2018-02-17T10:23:56.897Z,991.92
2018-02-17T10:24:56.880Z,991.94
2018-02-17T10:54:45.555Z,992.6
2018-02-17T10:55:44.587Z,992.59
2018-02-17T10:56:44.572Z,992.56
2018-02-17T10:57:44.560Z,992.57
2018-02-17T10:58:44.546Z,992.59
2018-02-17T10:59:44.531Z,992.58
2018-02-17T11:00:44.588Z,992.55
2018-02-17T11:01:44.506Z,992.6
2018-02-17T11:02:44.500Z,992.63
2018-02-17T11:03:44.483Z,992.62
2018-02-17T11:04:44.476Z,992.63
2018-02-17T11:05:44.465Z,992.58
2018-02-17T11:06:44.450Z,992.61
2018-02-17T11:07:44.440Z,992.65
2018-02-17T11:08:44.431Z,992.7
2018-02-17T11:09:44.418Z,992.69
2018-02-17T11:10:44.414Z,992.72
2018-02-17T11:11:44.398Z,992.77
2018-02-17T11:12:44.386Z,992.77
2018-02-17T11:13:44.377Z,992.76
2018-02-17T11:14:44.369Z,992.7
2018-02-17T11:15:44.357Z,992.74
2018-02-17T11:16:44.348Z,992.73
2018-02-17T11:17:44.336Z,992.75
2018-02-17T11:18:44.325Z,992.69
2018-02-17T11:19:44.315Z,992.72
2018-02-17T11:20:44.307Z,992.72
2018-02-17T11:21:44.296Z,992.74
2018-02-17T11:22:44.287Z,992.74
2018-02-17T11:23:44.283Z,992.72
2018-02-17T11:24:44.268Z,992.76
2018-02-17T11:25:44.256Z,992.69
2018-02-17T11:26:44.247Z,992.72
2018-02-17T11:27:44.238Z,992.68
2018-02-17T11:28:44.226Z,992.69
2018-02-17T11:29:44.217Z,992.69
2018-02-17T11:30:44.212Z,992.67
2018-02-17T11:31:44.195Z,992.68
2018-02-17T11:32:44.188Z,992.69
2018-02-17T11:33:44.179Z,992.7
2018-02-17T11:34:44.173Z,992.65
2018-02-17T11:35:44.224Z,992.62
2018-02-17T11:36:44.148Z,992.6
2018-02-17T11:37:44.136Z,992.58
2018-02-17T11:38:44.128Z,992.55
2018-02-17T11:39:44.132Z,992.54
2018-02-17T11:40:47.378Z,992.54
2018-02-17T11:41:44.097Z,992.55
2018-02-17T11:42:44.088Z,992.51
2018-02-17T11:43:44.079Z,992.54
2018-02-17T11:44:44.068Z,992.53
2018-02-17T11:45:44.059Z,992.54
2018-02-17T11:46:44.047Z,992.49
2018-02-17T11:47:44.040Z,992.46
2018-02-17T11:48:44.028Z,992.43
2018-02-17T11:49:44.022Z,992.43
2018-02-17T11:50:44.009Z,992.42
2018-02-17T11:51:44.003Z,992.41
2018-02-17T11:52:43.989Z,992.41
2018-02-17T11:53:44.165Z,992.37
2018-02-17T11:54:44.186Z,992.36
2018-02-17T11:55:44.208Z,992.34
2018-02-17T11:56:43.950Z,992.37
2018-02-17T11:57:44.136Z,992.38
2018-02-17T11:58:44.209Z,992.39
2018-02-17T11:59:43.934Z,992.4
2018-02-17T12:00:44.157Z,992.42
2018-02-17T12:01:44.010Z,992.42
2018-02-17T12:02:43.894Z,992.4
2018-02-17T12:03:43.886Z,992.4
2018-02-17T12:04:43.874Z,992.4
2018-02-17T12:05:43.867Z,992.38
2018-02-17T12:06:43.862Z,992.37
2018-02-17T12:07:43.850Z,992.39
2018-02-17T12:08:43.838Z,992.34
2018-02-17T12:09:43.830Z,992.38
2018-02-17T12:10:43.819Z,992.35
2018-02-17T12:11:43.809Z,992.4
2018-02-17T12:12:43.803Z,992.32
2018-02-17T12:13:43.793Z,992.38
2018-02-17T12:14:43.782Z,992.32
2018-02-17T12:15:43.777Z,992.31
2018-02-17T12:16:43.765Z,992.28
2018-02-17T12:17:43.755Z,992.29
2018-02-17T12:18:43.745Z,992.29
2018-02-17T12:19:43.735Z,992.3
2018-02-17T12:20:43.726Z,992.25
2018-02-17T12:21:43.717Z,992.29
2018-02-17T12:22:43.708Z,992.33
2018-02-17T12:23:43.706Z,992.33
2018-02-17T12:24:43.693Z,992.3
2018-02-17T12:25:43.680Z,992.3
2018-02-17T12:26:45.473Z,992.29
2018-02-17T12:27:43.661Z,992.27
2018-02-17T12:28:43.651Z,992.27
2018-02-17T12:29:43.650Z,992.24
2018-02-17T12:30:43.635Z,992.2
2018-02-17T12:31:43.625Z,992.13
2018-02-17T12:32:43.617Z,992.16
2018-02-17T12:33:43.609Z,992.12
2018-02-17T12:34:43.596Z,992.1
2018-02-17T12:35:43.588Z,992.07
2018-02-17T12:36:43.578Z,992.05
2018-02-17T12:37:43.568Z,992
2018-02-17T12:38:43.559Z,991.97
2018-02-17T12:39:43.550Z,991.9
2018-02-17T12:40:43.540Z,991.93
2018-02-17T12:41:43.531Z,991.92
2018-02-17T12:42:43.523Z,991.91
2018-02-17T12:43:43.512Z,991.91
2018-02-17T12:44:43.507Z,991.88
2018-02-17T12:45:43.493Z,991.94
2018-02-17T12:46:43.490Z,991.88
2018-02-17T12:47:43.477Z,991.83
2018-02-17T12:48:43.475Z,991.82
2018-02-17T12:49:43.458Z,991.85
2018-02-17T12:50:43.447Z,991.88
2018-02-17T12:51:43.440Z,991.87
2018-02-17T12:52:43.433Z,991.89
2018-02-17T12:53:43.429Z,991.96
2018-02-17T12:54:43.414Z,991.93
2018-02-17T12:55:43.400Z,991.96
2018-02-17T12:56:43.392Z,991.95
2018-02-17T12:57:43.385Z,991.89
2018-02-17T12:58:43.380Z,991.95
2018-02-17T12:59:43.364Z,991.95